Accueil
METAR-TAF:

METAR-TAF

Aéroports :

Aéroport international de Nouméa - La Tontouta

Nouméa / La Tontouta, Nouvelle-Calédonie

latitude: 22-01S, longitude: 166-13E, altitude: 16 m

Observation

Le bulletin a été fait il y a 32 minutes, à 03:30 UTC
Vent 7 kt de ouest/sud-ouest
Température 30°C
Humidité 59%
Pression 1014 hPa
Visibilité 10 km ou plus
pas de nuages en-dessous de 1500 mètres et pas de cumulonimbus.

METAR: NWWW 060330Z AUTO 24007KT CAVOK 30/21 Q1014 NOSIG

Heure: 15:02 (04:02 UTC)

Prévision

Le bulletin a été fait il y a 2 heures et 31 minutes, à 01:31 UTC
Prévision valable du 06 à 01 UTC au 06 à 24 UTC
Vent 10 kt de sud/sud-ouest
Visibilité 10 km ou plus
pas de nuages en-dessous de 1500 mètres et pas de cumulonimbus.
Evoluant progressivement
du 06 à 05 UTC au 06 à 07 UTC
Vent 6 kt de est/nord-est

TAF: NWWW 060131Z 0601/0624 21010KT CAVOK BECMG 0605/0607 06006KT

Observations et prévisions météorologiques de plus de 4000 aéroports (messages METAR et TAF).

Les stations disponibles sont représentées par des disques jaunes et rouges sur la carte.

Passer la souris dessus pour voir le nom de la station.

Cliquer dessus pour voir les observations et prévisions météorologiques.

Pour changer de carte: cliquez sur les boutons verts avec une croix noire pour zoomer, sur le bouton vert avec un tiret pour effectuer un zoom arrière, ou sur les flèches vertes pour les cartes adjacentes.


METAR-TAF: